Terminal Aerodrome Forecast
Issued by NWS

Home | Current Version | Previous Version | Text Only | Print | Product List | Glossary On
Versions: 1 2 3 4 5 6 7 8 9 10 11 12 13 14 15 16 17 18 19
000
FTUS43 KGRB 281300 AAA
TAFMTW
TAF AMD
KMTW 281333Z 2814/2912 18006KT 6SM -SN BR SCT025 OVC050
      TEMPO 2814/2818 1SM -SN OVC025
     FM281800 18008KT 2SM -SN BR OVC015
     FM282300 19012KT 4SM -FZDZSN BR OVC012
     FM290500 19007KT 5SM BR OVC009=

USA.gov is the U.S. government's official web portal to all federal, state and local government web resources and services.